createdAt,value
2023-03-06T00:01:33.543Z,75.02
2023-03-06T00:04:08.558Z,75.15
2023-03-06T00:06:41.492Z,74.39
2023-03-06T00:09:14.636Z,75.30
2023-03-06T00:11:47.752Z,74.60
2023-03-06T00:14:21.907Z,74.31
2023-03-06T00:16:56.020Z,75.18
2023-03-06T00:19:29.185Z,75.13
2023-03-06T00:22:03.324Z,74.18
2023-03-06T00:24:35.758Z,73.95
2023-03-06T00:27:08.190Z,75.09
2023-03-06T00:29:42.841Z,74.62
2023-03-06T00:32:16.117Z,74.46
2023-03-06T00:34:49.407Z,74.08
2023-03-06T00:37:24.577Z,74.02
2023-03-06T00:39:57.066Z,74.50
2023-03-06T00:42:30.239Z,74.65
2023-03-06T00:45:04.976Z,73.91
2023-03-06T00:47:37.836Z,74.11
2023-03-06T00:50:11.580Z,74.91
2023-03-06T00:52:44.677Z,74.31
2023-03-06T00:55:17.282Z,74.14
2023-03-06T00:57:50.167Z,74.91
2023-03-06T01:00:24.136Z,73.93
2023-03-06T01:02:57.357Z,73.73
2023-03-06T01:05:31.356Z,74.37
2023-03-06T01:08:06.454Z,73.71
2023-03-06T01:10:40.548Z,74.51
2023-03-06T01:13:14.669Z,74.18
2023-03-06T01:15:48.781Z,74.21
2023-03-06T01:18:21.892Z,73.72
2023-03-06T01:20:54.324Z,73.72
2023-03-06T01:23:27.030Z,74.01
2023-03-06T01:26:01.437Z,74.19
2023-03-06T01:28:35.601Z,74.72
2023-03-06T01:31:10.432Z,74.49
2023-03-06T01:33:43.404Z,74.21
2023-03-06T01:36:16.317Z,73.35
2023-03-06T01:38:49.355Z,73.59
2023-03-06T01:41:22.368Z,74.08
2023-03-06T01:43:55.158Z,74.53
2023-03-06T01:46:42.102Z,74.53
2023-03-06T01:49:19.143Z,74.00
2023-03-06T01:51:54.754Z,73.61
2023-03-06T01:54:31.599Z,74.28
2023-03-06T01:57:09.706Z,74.57
2023-03-06T01:59:43.609Z,73.55
2023-03-06T02:02:17.501Z,74.30
2023-03-06T02:04:50.379Z,73.56
2023-03-06T02:07:25.109Z,73.81
2023-03-06T02:09:58.948Z,73.89
2023-03-06T02:12:31.599Z,73.47
2023-03-06T02:15:05.234Z,73.36
2023-03-06T02:17:41.356Z,73.13
2023-03-06T02:20:19.840Z,74.26
2023-03-06T02:23:00.359Z,73.74
2023-03-06T02:25:38.577Z,73.49
2023-03-06T02:28:13.823Z,73.55
2023-03-06T02:30:49.999Z,73.51
2023-03-06T02:33:25.334Z,73.43
2023-03-06T02:36:00.115Z,73.00
2023-03-06T02:38:37.278Z,74.26
2023-03-06T02:41:12.325Z,73.35
2023-03-06T02:43:47.808Z,73.22
2023-03-06T02:46:20.592Z,73.76
2023-03-06T02:48:53.731Z,73.07
2023-03-06T02:51:27.700Z,73.57
2023-03-06T02:54:00.674Z,73.66
2023-03-06T02:56:34.458Z,73.73
2023-03-06T02:59:08.477Z,73.78
2023-03-06T03:01:40.893Z,73.16
2023-03-06T03:04:14.256Z,73.16
2023-03-06T03:06:47.076Z,74.16
2023-03-06T03:09:20.631Z,73.54
2023-03-06T03:11:54.578Z,73.85
2023-03-06T03:14:27.723Z,73.10
2023-03-06T03:17:00.712Z,72.97
2023-03-06T03:19:33.790Z,72.84
2023-03-06T03:22:06.843Z,72.99
2023-03-06T03:24:40.513Z,73.59
2023-03-06T03:27:14.606Z,73.90
2023-03-06T03:29:48.045Z,73.15
2023-03-06T03:32:21.038Z,73.39
2023-03-06T03:34:56.185Z,72.73
2023-03-06T03:37:30.765Z,72.96
2023-03-06T03:40:07.089Z,73.36
2023-03-06T03:42:41.208Z,72.52
2023-03-06T03:45:15.509Z,72.83
2023-03-06T03:47:48.592Z,72.91
2023-03-06T03:50:22.670Z,72.74
2023-03-06T03:52:55.613Z,72.35
2023-03-06T03:55:29.433Z,72.23
2023-03-06T03:58:03.758Z,72.05
2023-03-06T04:00:36.552Z,73.33
2023-03-06T04:03:16.414Z,73.41
2023-03-06T04:05:54.479Z,73.13
2023-03-06T04:08:27.907Z,73.66
2023-03-06T04:11:00.826Z,73.75
2023-03-06T04:13:36.115Z,72.66
2023-03-06T04:16:09.877Z,72.72
2023-03-06T04:18:44.666Z,72.43
2023-03-06T04:21:17.153Z,72.58
2023-03-06T04:23:49.798Z,71.44
2023-03-06T04:26:22.550Z,72.49
2023-03-06T04:28:56.458Z,72.33
2023-03-06T04:31:30.346Z,71.85
2023-03-06T04:34:02.928Z,71.47
2023-03-06T04:36:36.196Z,72.48
2023-03-06T04:39:16.062Z,72.15
2023-03-06T04:41:48.995Z,71.51
2023-03-06T04:44:25.752Z,72.09
2023-03-06T04:46:58.798Z,72.56
2023-03-06T04:49:31.625Z,72.01
2023-03-06T04:52:04.654Z,72.52
2023-03-06T04:54:37.430Z,72.03
2023-03-06T04:57:10.623Z,72.35
2023-03-06T04:59:45.085Z,71.57
2023-03-06T05:02:17.809Z,71.89
2023-03-06T05:04:50.912Z,71.41
2023-03-06T05:07:23.734Z,71.93
2023-03-06T05:09:56.372Z,72.22
2023-03-06T05:12:29.402Z,71.44
2023-03-06T05:15:04.002Z,71.63
2023-03-06T05:17:37.853Z,72.18
2023-03-06T05:20:13.567Z,71.75
2023-03-06T05:22:46.642Z,70.97
2023-03-06T05:25:19.494Z,71.89
2023-03-06T05:27:51.865Z,71.86
2023-03-06T05:30:25.859Z,71.09
2023-03-06T05:32:59.142Z,70.80
2023-03-06T05:35:32.148Z,70.53
2023-03-06T05:38:04.920Z,70.49
2023-03-06T05:40:40.508Z,71.36
2023-03-06T05:43:13.100Z,70.50
2023-03-06T05:45:47.793Z,71.40
2023-03-06T05:48:20.303Z,71.45
2023-03-06T05:50:55.967Z,71.17
2023-03-06T05:53:29.503Z,70.06
2023-03-06T05:56:04.790Z,71.05
2023-03-06T05:58:38.176Z,70.27
2023-03-06T06:01:14.148Z,70.28
2023-03-06T06:03:47.713Z,70.57
2023-03-06T06:06:20.499Z,70.45
2023-03-06T06:08:53.567Z,70.46
2023-03-06T06:11:26.286Z,70.28
2023-03-06T06:13:59.137Z,69.04
2023-03-06T06:16:33.527Z,69.61
2023-03-06T06:19:06.306Z,69.73
2023-03-06T06:21:38.759Z,69.39
2023-03-06T06:24:11.707Z,69.48
2023-03-06T06:26:44.913Z,69.65
2023-03-06T06:29:18.609Z,68.89
2023-03-06T06:31:53.342Z,69.27
2023-03-06T06:34:26.896Z,68.97
2023-03-06T06:36:59.387Z,69.08
2023-03-06T06:39:32.574Z,68.34
2023-03-06T06:42:27.998Z,68.38
2023-03-06T06:44:58.541Z,68.82
2023-03-06T06:47:34.416Z,68.11
2023-03-06T06:50:11.852Z,68.42
2023-03-06T06:52:44.637Z,68.01
2023-03-06T06:55:17.436Z,68.17
2023-03-06T06:57:49.978Z,67.31
2023-03-06T07:00:23.617Z,67.72
2023-03-06T07:02:57.890Z,66.75
2023-03-06T07:05:30.649Z,66.81
2023-03-06T07:08:03.071Z,67.24
2023-03-06T07:10:36.775Z,66.18
2023-03-06T07:13:09.536Z,67.03
2023-03-06T07:15:42.416Z,66.02
2023-03-06T07:18:16.899Z,66.46
2023-03-06T07:20:49.312Z,65.44
2023-03-06T07:23:22.572Z,65.46
2023-03-06T07:25:55.538Z,64.92
2023-03-06T07:28:28.403Z,65.25
2023-03-06T07:31:01.194Z,64.64
2023-03-06T07:33:35.150Z,64.45
2023-03-06T07:36:12.721Z,64.48
2023-03-06T07:38:45.637Z,64.01
2023-03-06T07:41:22.362Z,63.70
2023-03-06T07:43:55.635Z,63.30
2023-03-06T07:46:28.156Z,63.35
2023-03-06T07:49:02.704Z,63.23
2023-03-06T07:51:35.140Z,63.14
2023-03-06T07:54:08.280Z,63.78
2023-03-06T07:56:40.685Z,62.79
2023-03-06T07:59:13.375Z,62.87
2023-03-06T08:01:45.865Z,62.91
2023-03-06T08:04:21.220Z,63.33
2023-03-06T08:06:57.550Z,62.51
2023-03-06T08:09:31.983Z,62.27
2023-03-06T08:12:04.444Z,62.93
2023-03-06T08:14:37.179Z,63.09
2023-03-06T08:17:10.158Z,62.88
2023-03-06T08:19:44.341Z,62.37
2023-03-06T08:22:17.060Z,62.38
2023-03-06T08:24:49.850Z,61.94
2023-03-06T08:27:22.847Z,62.31
2023-03-06T08:29:55.315Z,62.66
2023-03-06T08:32:28.434Z,62.89
2023-03-06T08:35:03.961Z,62.83
2023-03-06T08:37:37.417Z,62.98
2023-03-06T08:40:11.269Z,62.54
2023-03-06T08:42:44.566Z,62.20
2023-03-06T08:45:17.148Z,62.23
2023-03-06T08:47:50.008Z,61.93
2023-03-06T08:50:24.220Z,62.08
2023-03-06T08:52:56.946Z,62.07
2023-03-06T08:55:30.268Z,61.49
2023-03-06T08:58:04.707Z,62.13
2023-03-06T09:00:37.820Z,61.61
2023-03-06T09:03:10.662Z,61.97
2023-03-06T09:05:44.853Z,62.14
2023-03-06T09:08:18.275Z,62.34
2023-03-06T09:10:50.855Z,61.99
2023-03-06T09:13:23.315Z,62.39
2023-03-06T09:15:55.949Z,61.53
2023-03-06T09:18:29.931Z,61.91
2023-03-06T09:21:04.569Z,61.85
2023-03-06T09:23:39.968Z,61.42
2023-03-06T09:26:13.157Z,61.47
2023-03-06T09:28:46.101Z,61.18
2023-03-06T09:31:20.545Z,62.10
2023-03-06T09:33:52.973Z,62.05
2023-03-06T09:36:27.204Z,61.71
2023-03-06T09:39:00.174Z,61.69
2023-03-06T09:41:35.986Z,61.25
2023-03-06T09:44:15.357Z,61.25
2023-03-06T09:47:03.282Z,61.38
2023-03-06T09:49:48.330Z,60.83
2023-03-06T09:52:34.076Z,61.08
2023-03-06T09:55:12.650Z,60.52
2023-03-06T09:57:55.234Z,60.70
2023-03-06T10:00:31.533Z,60.32
2023-03-06T10:03:19.128Z,60.20
2023-03-06T10:05:57.698Z,59.92
2023-03-06T10:08:41.567Z,59.50
2023-03-06T10:11:18.473Z,59.94
2023-03-06T10:13:59.367Z,59.98
2023-03-06T10:16:33.432Z,59.66
2023-03-06T10:19:12.887Z,60.23
2023-03-06T10:21:54.687Z,59.21
2023-03-06T10:24:48.045Z,59.84
2023-03-06T10:27:38.997Z,59.70
2023-03-06T10:30:24.103Z,59.37
2023-03-06T10:32:59.224Z,59.59
2023-03-06T10:35:45.899Z,59.36
2023-03-06T10:38:21.788Z,59.12
2023-03-06T10:41:09.239Z,58.87
2023-03-06T10:43:43.990Z,59.35
2023-03-06T10:46:28.169Z,59.20
2023-03-06T10:49:02.029Z,58.57
2023-03-06T10:51:35.759Z,58.64
2023-03-06T10:54:20.119Z,58.26
2023-03-06T10:56:54.665Z,57.92
2023-03-06T10:59:30.937Z,57.92
2023-03-06T11:02:24.671Z,58.10
2023-03-06T11:04:59.712Z,57.74
2023-03-06T11:07:33.345Z,57.83
2023-03-06T11:10:18.141Z,57.19
2023-03-06T11:12:59.928Z,57.93
2023-03-06T11:15:32.635Z,57.70
2023-03-06T11:18:40.320Z,57.98
2023-03-06T11:21:27.098Z,57.55
2023-03-06T11:24:05.983Z,58.25
2023-03-06T11:26:43.963Z,57.56
2023-03-06T11:29:38.926Z,58.43
2023-03-06T11:32:18.121Z,57.65
2023-03-06T11:34:54.867Z,57.11
2023-03-06T11:37:39.431Z,57.68
2023-03-06T11:40:18.763Z,57.44
2023-03-06T11:42:59.801Z,57.46
2023-03-06T11:45:42.643Z,57.48
2023-03-06T11:48:25.320Z,57.99
2023-03-06T11:51:06.289Z,58.20
2023-03-06T11:53:40.674Z,57.80
2023-03-06T11:56:31.970Z,58.48
2023-03-06T11:59:27.616Z,59.07
2023-03-06T12:02:13.218Z,58.72
2023-03-06T12:05:01.561Z,59.00
2023-03-06T12:07:44.863Z,59.42
2023-03-06T12:10:20.839Z,59.32
2023-03-06T12:13:16.948Z,59.78
2023-03-06T12:16:12.842Z,59.61
2023-03-06T12:18:57.713Z,59.51
2023-03-06T12:21:39.059Z,59.03
2023-03-06T12:24:28.700Z,59.46
2023-03-06T12:27:16.851Z,59.00
2023-03-06T12:30:17.843Z,58.91
2023-03-06T12:32:57.694Z,58.88
2023-03-06T12:35:51.041Z,59.06
2023-03-06T12:38:55.856Z,58.83
2023-03-06T12:41:43.027Z,58.64
2023-03-06T12:44:39.937Z,59.01
2023-03-06T12:47:17.661Z,58.83
2023-03-06T12:49:55.282Z,59.01
2023-03-06T12:52:31.894Z,58.73
2023-03-06T12:55:08.085Z,58.61
2023-03-06T12:57:41.850Z,58.31
2023-03-06T13:00:49.889Z,58.68
2023-03-06T13:03:30.522Z,58.92
2023-03-06T13:06:20.738Z,58.79
2023-03-06T13:09:11.706Z,58.79
2023-03-06T13:12:23.450Z,58.94
2023-03-06T13:14:59.102Z,59.04
2023-03-06T13:17:37.385Z,59.64
2023-03-06T13:20:35.111Z,59.81
2023-03-06T13:23:48.500Z,60.19
2023-03-06T13:27:04.152Z,61.60
2023-03-06T13:30:06.462Z,62.41
2023-03-06T13:32:39.812Z,62.89
2023-03-06T13:35:52.684Z,62.92
2023-03-06T13:38:37.243Z,63.20
2023-03-06T13:41:37.936Z,63.51
2023-03-06T13:44:47.500Z,63.52
2023-03-06T13:50:41.582Z,63.33
2023-03-06T13:53:44.937Z,63.59
2023-03-06T13:56:58.481Z,63.90
2023-03-06T14:00:09.831Z,63.84
2023-03-06T14:03:23.944Z,63.28
2023-03-06T14:05:59.444Z,63.38
2023-03-06T14:08:33.322Z,63.25
2023-03-06T14:11:17.722Z,63.14
2023-03-06T14:13:52.843Z,64.04
2023-03-06T14:16:32.728Z,63.11
2023-03-06T14:19:16.918Z,63.04
2023-03-06T14:21:57.300Z,63.64
2023-03-06T14:24:34.710Z,63.76
2023-03-06T14:27:09.555Z,63.57
2023-03-06T14:29:41.958Z,63.53
2023-03-06T14:32:18.109Z,64.35
2023-03-06T14:34:50.896Z,63.29
2023-03-06T14:37:25.368Z,63.91
2023-03-06T14:39:58.872Z,64.30
2023-03-06T14:42:31.512Z,63.45
2023-03-06T14:45:16.557Z,64.04
2023-03-06T14:47:52.243Z,63.58
2023-03-06T14:50:26.326Z,63.78
2023-03-06T14:53:04.512Z,64.21
2023-03-06T14:55:37.540Z,63.50
2023-03-06T14:58:14.915Z,64.12
2023-03-06T15:00:51.780Z,63.41
2023-03-06T15:03:33.805Z,63.26
2023-03-06T15:06:09.249Z,63.60
2023-03-06T15:08:45.427Z,64.27
2023-03-06T15:11:18.275Z,63.14
2023-03-06T15:14:01.615Z,63.64
2023-03-06T15:16:34.589Z,63.50
2023-03-06T15:19:18.858Z,63.62
2023-03-06T15:21:52.899Z,63.26
2023-03-06T15:24:35.195Z,63.73
2023-03-06T15:27:19.227Z,63.08
2023-03-06T15:29:51.782Z,63.34
2023-03-06T15:32:32.629Z,63.38
2023-03-06T15:35:28.580Z,63.60
2023-03-06T15:38:02.846Z,63.71
2023-03-06T15:40:37.563Z,63.65
2023-03-06T15:43:14.885Z,63.69
2023-03-06T15:45:48.057Z,64.25
2023-03-06T15:48:21.131Z,64.52
2023-03-06T15:50:53.616Z,63.79
2023-03-06T15:53:26.288Z,64.82
2023-03-06T15:56:01.785Z,64.98
2023-03-06T15:58:35.000Z,64.08
2023-03-06T16:01:08.345Z,64.78
2023-03-06T16:03:41.505Z,65.08
2023-03-06T16:06:17.446Z,64.85
2023-03-06T16:08:50.957Z,64.86
2023-03-06T16:11:35.434Z,65.21
2023-03-06T16:14:21.576Z,64.81
2023-03-06T16:16:56.677Z,65.32
2023-03-06T16:19:29.770Z,64.83
2023-03-06T16:22:02.233Z,65.09
2023-03-06T16:24:35.310Z,65.03
2023-03-06T16:27:17.073Z,65.29
2023-03-06T16:29:49.871Z,65.80
2023-03-06T16:32:23.046Z,65.42
2023-03-06T16:34:55.835Z,65.52
2023-03-06T16:37:28.476Z,64.96
2023-03-06T16:40:01.333Z,65.71
2023-03-06T16:42:37.051Z,65.52
2023-03-06T16:45:11.419Z,66.10
2023-03-06T16:47:44.840Z,65.74
2023-03-06T16:50:24.650Z,65.41
2023-03-06T16:52:58.556Z,66.36
2023-03-06T16:55:33.213Z,66.20
2023-03-06T16:58:08.832Z,65.55
2023-03-06T17:00:42.006Z,66.61
2023-03-06T17:03:16.956Z,66.55
2023-03-06T17:05:50.234Z,66.08
2023-03-06T17:08:23.253Z,66.65
2023-03-06T17:10:56.098Z,66.04
2023-03-06T17:13:30.317Z,65.61
2023-03-06T17:16:03.227Z,65.46
2023-03-06T17:18:36.549Z,65.39
2023-03-06T17:24:02.542Z,65.65
2023-03-06T17:26:38.015Z,66.45
2023-03-06T17:29:15.091Z,66.00
2023-03-06T17:31:48.357Z,66.39
2023-03-06T17:34:22.501Z,65.74
2023-03-06T17:36:56.840Z,66.96
2023-03-06T17:39:33.017Z,66.07
2023-03-06T17:42:06.819Z,66.13
2023-03-06T17:44:41.149Z,66.36
2023-03-06T17:47:13.954Z,66.64
2023-03-06T17:49:47.091Z,66.02
2023-03-06T17:52:19.477Z,66.23
2023-03-06T17:54:52.471Z,66.59
2023-03-06T17:57:25.315Z,66.46
2023-03-06T17:59:59.333Z,65.39
2023-03-06T18:02:33.072Z,66.45
2023-03-06T18:05:08.179Z,66.11
2023-03-06T18:07:41.166Z,66.23
2023-03-06T18:10:14.172Z,65.54
2023-03-06T18:12:47.059Z,65.23
2023-03-06T18:15:20.965Z,65.40
2023-03-06T18:17:55.261Z,65.13
2023-03-06T18:20:31.113Z,65.03
2023-03-06T18:23:03.868Z,64.72
2023-03-06T18:25:37.029Z,64.96
2023-03-06T18:28:09.681Z,64.71
2023-03-06T18:30:44.468Z,65.58
2023-03-06T18:33:16.912Z,64.60
2023-03-06T18:35:49.980Z,64.22
2023-03-06T18:38:23.252Z,64.93
2023-03-06T18:40:55.775Z,64.21
2023-03-06T18:43:29.156Z,64.29
2023-03-06T18:46:04.890Z,64.30
2023-03-06T18:48:38.286Z,63.78
2023-03-06T18:51:12.132Z,63.43
2023-03-06T18:53:44.947Z,63.12
2023-03-06T18:56:20.056Z,62.91
2023-03-06T18:58:53.949Z,63.31
2023-03-06T19:01:31.228Z,62.79
2023-03-06T19:04:05.114Z,62.45
2023-03-06T19:06:38.436Z,62.86
2023-03-06T19:09:11.546Z,62.51
2023-03-06T19:11:47.081Z,61.94
2023-03-06T19:14:19.583Z,62.35
2023-03-06T19:16:54.588Z,62.53
2023-03-06T19:19:29.529Z,62.27
2023-03-06T19:22:02.930Z,62.60
2023-03-06T19:24:35.506Z,62.66
2023-03-06T19:27:11.616Z,62.74
2023-03-06T19:29:44.285Z,61.68
2023-03-06T19:32:19.597Z,62.88
2023-03-06T19:34:52.496Z,62.36
2023-03-06T19:37:25.663Z,61.57
2023-03-06T19:40:01.438Z,62.45
2023-03-06T19:42:36.290Z,61.89
2023-03-06T19:45:10.639Z,62.41
2023-03-06T19:47:44.978Z,62.32
2023-03-06T19:50:18.006Z,62.91
2023-03-06T19:52:52.500Z,62.40
2023-03-06T19:55:26.786Z,62.58
2023-03-06T19:57:59.342Z,62.81
2023-03-06T20:00:32.248Z,62.53
2023-03-06T20:03:06.599Z,63.30
2023-03-06T20:05:46.355Z,62.40
2023-03-06T20:08:19.155Z,63.03
2023-03-06T20:10:51.858Z,62.42
2023-03-06T20:13:24.751Z,63.14
2023-03-06T20:15:58.087Z,63.27
2023-03-06T20:18:32.402Z,63.46
2023-03-06T20:21:06.191Z,63.57
2023-03-06T20:23:38.749Z,63.51
2023-03-06T20:26:14.262Z,63.83
2023-03-06T20:28:46.855Z,63.72
2023-03-06T20:31:21.581Z,63.31
2023-03-06T20:33:59.054Z,63.26
2023-03-06T20:36:36.302Z,64.25
2023-03-06T20:39:12.379Z,63.87
2023-03-06T20:41:46.597Z,63.39
2023-03-06T20:44:20.221Z,64.45
2023-03-06T20:46:53.386Z,64.65
2023-03-06T20:49:28.872Z,63.71
2023-03-06T20:52:01.770Z,64.30
2023-03-06T20:54:37.473Z,64.45
2023-03-06T20:57:10.232Z,64.74
2023-03-06T20:59:43.289Z,64.27
2023-03-06T21:02:15.630Z,63.67
2023-03-06T21:04:50.523Z,64.80
2023-03-06T21:07:22.912Z,64.50
2023-03-06T21:09:55.897Z,64.66
2023-03-06T21:12:28.632Z,63.82
2023-03-06T21:15:01.429Z,63.79
2023-03-06T21:17:35.660Z,63.95
2023-03-06T21:20:11.304Z,64.40
2023-03-06T21:22:44.022Z,64.98
2023-03-06T21:25:17.236Z,64.53
2023-03-06T21:27:50.182Z,65.24
2023-03-06T21:30:22.744Z,64.32
2023-03-06T21:32:56.015Z,65.20
2023-03-06T21:35:30.335Z,64.77
2023-03-06T21:38:03.403Z,64.96
2023-03-06T21:40:36.125Z,64.17
2023-03-06T21:43:09.676Z,65.12
2023-03-06T21:45:43.974Z,64.40
2023-03-06T21:48:17.011Z,64.56
2023-03-06T21:50:51.196Z,64.85
2023-03-06T21:53:23.558Z,65.12
2023-03-06T21:55:56.634Z,64.70
2023-03-06T21:58:29.690Z,64.63
2023-03-06T22:01:02.578Z,64.78
2023-03-06T22:03:34.921Z,64.42
2023-03-06T22:06:14.493Z,65.16
2023-03-06T22:08:47.266Z,65.74
2023-03-06T22:11:21.695Z,64.65
2023-03-06T22:13:54.212Z,65.47
2023-03-06T22:16:27.382Z,64.50
2023-03-06T22:19:00.947Z,64.73
2023-03-06T22:21:35.259Z,64.67
2023-03-06T22:24:07.800Z,64.86
2023-03-06T22:26:40.989Z,64.96
2023-03-06T22:29:13.390Z,65.75
2023-03-06T22:31:46.347Z,65.58
2023-03-06T22:34:19.022Z,64.96
2023-03-06T22:36:53.943Z,65.21
2023-03-06T22:39:27.492Z,65.73
2023-03-06T22:42:00.535Z,65.98
2023-03-06T22:44:33.032Z,65.42
2023-03-06T22:47:06.487Z,66.09
2023-03-06T22:49:39.493Z,65.25
2023-03-06T22:52:15.123Z,65.53
2023-03-06T22:54:48.009Z,65.39
2023-03-06T22:57:21.089Z,65.64
2023-03-06T22:59:53.868Z,65.63
2023-03-06T23:02:26.319Z,65.53
2023-03-06T23:04:59.377Z,65.62
2023-03-06T23:07:33.319Z,66.08
2023-03-06T23:10:10.607Z,66.49
2023-03-06T23:13:01.799Z,66.48
2023-03-06T23:15:53.693Z,66.64
2023-03-06T23:18:44.924Z,65.77
2023-03-06T23:21:36.835Z,66.15
2023-03-06T23:24:29.133Z,65.79
2023-03-06T23:27:02.048Z,66.75
2023-03-06T23:29:34.684Z,65.90
2023-03-06T23:32:08.304Z,66.19
2023-03-06T23:34:40.894Z,66.15
2023-03-06T23:37:14.094Z,66.07
2023-03-06T23:39:48.658Z,66.47
2023-03-06T23:42:21.108Z,66.07
2023-03-06T23:44:53.889Z,65.73
2023-03-06T23:47:26.414Z,65.79
2023-03-06T23:49:59.154Z,66.14
2023-03-06T23:52:31.873Z,66.43
2023-03-06T23:55:07.302Z,66.34
2023-03-06T23:57:39.742Z,66.06
